Afton, Texas
Current Conditions -  °F | °C
As of 6:53 PM on Wednesday 22 Oct 2014 (Local Time) from KCDS Reporting Station
Haze Haze  
Wind Chill: 64°   Ceiling: 800
Heat Index: 64°   Visibility: 6mi
Dew Point: 61°   Wind: 10mph
Humidity: 90%   Direction: 150°SSE
Pressure: 30.1"   Gusts: NA
Location:  33.76°N, 100.82°W
Report Text: KCDS 222353Z AUTO 15009KT 6SM BR BKN008 BKN060 18/16 A3010 RMK AO2 SLP178 60003 T01780161 10183 20172 56002
Loading
Personal Weather Stations






























Interactive Weather Map New forecast layout! Learn more

10-Day Weather Forecast

Advertisements
Track Severe Weather on mobile